createdAt,value
2023-04-22T00:00:48.077Z,17.39
2023-04-22T00:03:15.933Z,16.76
2023-04-22T00:05:44.970Z,17.80
2023-04-22T00:08:12.700Z,17.72
2023-04-22T00:10:41.847Z,17.39
2023-04-22T00:13:09.516Z,17.25
2023-04-22T00:15:37.247Z,16.70
2023-04-22T00:18:05.164Z,17.33
2023-04-22T00:20:33.436Z,17.11
2023-04-22T00:23:01.073Z,16.22
2023-04-22T00:25:28.782Z,17.37
2023-04-22T00:27:57.944Z,17.53
2023-04-22T00:30:25.746Z,16.76
2023-04-22T00:32:53.942Z,15.88
2023-04-22T00:35:21.958Z,16.37
2023-04-22T00:37:49.924Z,16.29
2023-04-22T00:40:18.263Z,16.25
2023-04-22T00:42:45.970Z,17.31
2023-04-22T00:45:18.026Z,16.62
2023-04-22T00:47:45.955Z,16.59
2023-04-22T00:50:13.877Z,16.17
2023-04-22T00:52:41.576Z,16.10
2023-04-22T00:55:09.800Z,17.16
2023-04-22T00:57:37.592Z,16.20
2023-04-22T01:00:06.634Z,16.69
2023-04-22T01:02:35.970Z,16.43
2023-04-22T01:05:03.981Z,16.79
2023-04-22T01:07:31.694Z,16.59
2023-04-22T01:09:59.500Z,16.84
2023-04-22T01:12:27.216Z,15.50
2023-04-22T01:14:57.127Z,16.78
2023-04-22T01:17:25.846Z,17.15
2023-04-22T01:19:55.812Z,16.65
2023-04-22T01:22:23.947Z,16.85
2023-04-22T01:24:53.068Z,16.90
2023-04-22T01:27:20.758Z,16.78
2023-04-22T01:29:48.680Z,17.02
2023-04-22T01:32:16.458Z,16.74
2023-04-22T01:34:44.201Z,17.22
2023-04-22T01:37:12.036Z,16.89
2023-04-22T01:39:39.975Z,17.08
2023-04-22T01:42:09.613Z,16.91
2023-04-22T01:44:37.278Z,15.72
2023-04-22T01:47:05.418Z,15.85
2023-04-22T01:50:22.772Z,16.49
2023-04-22T01:52:50.703Z,16.71
2023-04-22T01:55:18.381Z,17.04
2023-04-22T01:57:47.514Z,16.81
2023-04-22T02:00:15.641Z,17.26
2023-04-22T02:02:43.413Z,17.29
2023-04-22T02:05:12.627Z,16.94
2023-04-22T02:07:40.358Z,16.43
2023-04-22T02:10:09.469Z,16.20
2023-04-22T02:12:37.174Z,16.71
2023-04-22T02:15:07.415Z,16.18
2023-04-22T02:17:35.879Z,17.28
2023-04-22T02:20:04.809Z,17.33
2023-04-22T02:22:33.046Z,17.20
2023-04-22T02:25:01.395Z,16.51
2023-04-22T02:27:29.069Z,17.61
2023-04-22T02:29:56.690Z,17.56
2023-04-22T02:32:25.780Z,17.65
2023-04-22T02:34:53.921Z,17.49
2023-04-22T02:37:22.850Z,17.54
2023-04-22T02:39:53.256Z,18.20
2023-04-22T02:42:20.938Z,18.31
2023-04-22T02:44:48.589Z,18.09
2023-04-22T02:47:16.233Z,17.96
2023-04-22T02:49:45.471Z,17.18
2023-04-22T02:52:13.175Z,17.23
2023-04-22T02:54:40.803Z,18.33
2023-04-22T02:57:08.751Z,17.25
2023-04-22T02:59:37.128Z,17.29
2023-04-22T03:02:06.846Z,17.80
2023-04-22T03:04:34.886Z,18.20
2023-04-22T03:07:04.339Z,17.87
2023-04-22T03:09:32.002Z,17.91
2023-04-22T03:11:59.878Z,17.50
2023-04-22T03:14:27.495Z,17.90
2023-04-22T03:16:55.480Z,18.62
2023-04-22T03:19:23.371Z,17.18
2023-04-22T03:21:51.010Z,17.38
2023-04-22T03:24:20.049Z,16.89
2023-04-22T03:26:47.810Z,17.14
2023-04-22T03:29:15.681Z,17.90
2023-04-22T03:31:43.336Z,17.90
2023-04-22T03:34:10.986Z,17.97
2023-04-22T03:36:38.731Z,18.19
2023-04-22T03:39:06.386Z,18.17
2023-04-22T03:41:36.040Z,18.03
2023-04-22T03:44:03.665Z,18.31
2023-04-22T03:46:32.031Z,18.28
2023-04-22T03:48:59.873Z,18.45
2023-04-22T03:51:27.562Z,18.48
2023-04-22T03:54:15.850Z,17.78
2023-04-22T03:56:44.922Z,17.94
2023-04-22T03:59:12.598Z,18.13
2023-04-22T04:01:40.255Z,17.61
2023-04-22T04:04:08.210Z,17.54
2023-04-22T04:06:36.023Z,18.01
2023-04-22T04:09:04.298Z,17.95
2023-04-22T04:11:32.015Z,18.28
2023-04-22T04:14:01.111Z,18.42
2023-04-22T04:16:28.936Z,18.29
2023-04-22T04:18:56.666Z,17.70
2023-04-22T04:21:24.320Z,17.94
2023-04-22T04:23:51.945Z,18.28
2023-04-22T04:26:20.506Z,18.07
2023-04-22T04:28:49.252Z,18.40
2023-04-22T04:31:18.499Z,17.82
2023-04-22T04:33:46.696Z,18.22
2023-04-22T04:36:14.484Z,17.97
2023-04-22T04:38:42.195Z,17.48
2023-04-22T04:41:10.698Z,18.03
2023-04-22T04:43:39.042Z,18.01
2023-04-22T04:46:08.385Z,18.06
2023-04-22T04:48:37.527Z,17.61
2023-04-22T04:51:06.267Z,18.17
2023-04-22T04:53:33.974Z,18.37
2023-04-22T04:56:01.610Z,17.90
2023-04-22T04:58:29.268Z,18.77
2023-04-22T05:00:56.911Z,18.01
2023-04-22T05:03:24.797Z,18.89
2023-04-22T05:05:54.035Z,18.45
2023-04-22T05:08:21.785Z,19.32
2023-04-22T05:10:49.522Z,19.21
2023-04-22T05:13:17.162Z,18.81
2023-04-22T05:15:44.826Z,18.86
2023-04-22T05:18:12.481Z,18.33
2023-04-22T05:20:40.134Z,19.31
2023-04-22T05:23:09.164Z,18.17
2023-04-22T05:25:36.876Z,18.45
2023-04-22T05:28:04.588Z,17.39
2023-04-22T05:30:32.280Z,17.97
2023-04-22T05:32:59.963Z,16.87
2023-04-22T05:35:28.391Z,18.63
2023-04-22T05:37:56.010Z,19.05
2023-04-22T05:40:25.331Z,19.38
2023-04-22T05:42:52.978Z,18.37
2023-04-22T05:45:20.693Z,18.60
2023-04-22T05:47:48.634Z,18.68
2023-04-22T05:50:16.290Z,17.83
2023-04-22T05:52:43.939Z,19.01
2023-04-22T05:55:11.653Z,18.15
2023-04-22T05:57:40.707Z,18.46
2023-04-22T06:00:10.427Z,18.58
2023-04-22T06:02:38.248Z,18.29
2023-04-22T06:05:07.230Z,19.20
2023-04-22T06:07:35.038Z,18.70
2023-04-22T06:10:05.362Z,19.64
2023-04-22T06:12:34.125Z,19.82
2023-04-22T06:15:03.320Z,19.41
2023-04-22T06:17:31.073Z,19.15
2023-04-22T06:19:58.775Z,18.76
2023-04-22T06:22:26.523Z,19.12
2023-04-22T06:24:54.393Z,20.65
2023-04-22T06:27:42.829Z,20.92
2023-04-22T06:30:12.623Z,19.90
2023-04-22T06:32:40.305Z,19.07
2023-04-22T06:35:09.163Z,19.37
2023-04-22T06:37:52.518Z,20.21
2023-04-22T06:40:20.154Z,20.54
2023-04-22T06:42:48.028Z,21.53
2023-04-22T06:45:17.118Z,20.95
2023-04-22T06:47:44.793Z,20.97
2023-04-22T06:50:12.657Z,20.67
2023-04-22T06:52:40.344Z,21.02
2023-04-22T06:55:11.470Z,20.53
2023-04-22T06:57:39.246Z,21.79
2023-04-22T07:00:08.629Z,21.47
2023-04-22T07:02:37.786Z,21.78
2023-04-22T07:05:06.213Z,20.97
2023-04-22T07:07:33.896Z,21.24
2023-04-22T07:10:30.695Z,21.62
2023-04-22T07:12:58.645Z,21.06
2023-04-22T07:15:26.356Z,21.66
2023-04-22T07:17:55.671Z,22.32
2023-04-22T07:20:23.632Z,22.48
2023-04-22T07:22:52.468Z,22.49
2023-04-22T07:25:20.155Z,22.08
2023-04-22T07:27:47.793Z,22.98
2023-04-22T07:30:15.877Z,23.33
2023-04-22T07:32:43.610Z,21.93
2023-04-22T07:35:12.742Z,22.58
2023-04-22T07:37:40.415Z,21.78
2023-04-22T07:40:11.830Z,21.50
2023-04-22T07:42:39.971Z,22.83
2023-04-22T07:45:08.651Z,22.53
2023-04-22T07:47:36.369Z,21.88
2023-04-22T07:50:04.668Z,21.95
2023-04-22T07:52:33.748Z,22.24
2023-04-22T07:55:01.780Z,21.46
2023-04-22T07:57:29.769Z,22.19
2023-04-22T07:59:57.418Z,22.89
2023-04-22T08:02:25.359Z,22.47
2023-04-22T08:04:53.216Z,22.10
2023-04-22T08:09:53.032Z,22.62
2023-04-22T08:12:20.726Z,22.45
2023-04-22T08:14:48.639Z,23.05
2023-04-22T08:17:16.281Z,22.10
2023-04-22T08:19:43.957Z,23.55
2023-04-22T08:22:13.637Z,22.08
2023-04-22T08:24:41.370Z,22.92
2023-04-22T08:27:10.425Z,22.23
2023-04-22T08:29:38.741Z,23.29
2023-04-22T08:32:06.748Z,23.25
2023-04-22T08:34:34.408Z,23.87
2023-04-22T08:37:02.076Z,24.21
2023-04-22T08:39:30.144Z,24.54
2023-04-22T08:41:58.456Z,24.87
2023-04-22T08:44:28.000Z,24.34
2023-04-22T08:46:56.395Z,25.68
2023-04-22T08:49:25.238Z,26.76
2023-04-22T08:51:53.752Z,25.16
2023-04-22T08:54:21.429Z,24.61
2023-04-22T08:56:51.208Z,25.64
2023-04-22T08:59:19.481Z,26.03
2023-04-22T09:01:51.505Z,25.82
2023-04-22T09:04:20.044Z,26.82
2023-04-22T09:06:47.917Z,25.70
2023-04-22T09:09:15.686Z,25.86
2023-04-22T09:11:43.377Z,26.15
2023-04-22T09:14:11.095Z,26.99
2023-04-22T09:16:42.703Z,27.10
2023-04-22T09:19:14.877Z,26.99
2023-04-22T09:21:43.137Z,25.31
2023-04-22T09:24:12.343Z,26.37
2023-04-22T09:26:41.028Z,25.84
2023-04-22T09:29:09.680Z,26.24
2023-04-22T09:31:38.478Z,25.39
2023-04-22T09:34:06.954Z,25.93
2023-04-22T09:36:37.699Z,26.19
2023-04-22T09:39:08.747Z,27.40
2023-04-22T09:41:38.777Z,27.92
2023-04-22T09:44:10.259Z,27.59
2023-04-22T09:46:37.991Z,27.85
2023-04-22T09:49:05.770Z,27.05
2023-04-22T09:51:34.551Z,27.31
2023-04-22T09:54:06.733Z,27.89
2023-04-22T09:56:48.114Z,28.18
2023-04-22T09:59:17.050Z,27.63
2023-04-22T10:01:44.784Z,27.27
2023-04-22T10:04:15.032Z,27.70
2023-04-22T10:06:43.227Z,27.75
2023-04-22T10:09:13.318Z,27.74
2023-04-22T10:11:41.737Z,28.09
2023-04-22T10:14:11.198Z,27.19
2023-04-22T10:16:39.818Z,27.57
2023-04-22T10:19:08.785Z,28.38
2023-04-22T10:21:36.808Z,27.37
2023-04-22T10:24:05.151Z,27.01
2023-04-22T10:26:45.378Z,28.21
2023-04-22T10:29:17.138Z,28.30
2023-04-22T10:31:45.798Z,28.06
2023-04-22T10:34:14.716Z,27.38
2023-04-22T10:36:55.915Z,27.96
2023-04-22T10:39:24.345Z,28.19
2023-04-22T10:41:59.353Z,29.18
2023-04-22T10:44:30.696Z,28.67
2023-04-22T10:47:00.742Z,28.89
2023-04-22T10:49:52.203Z,28.36
2023-04-22T10:52:29.423Z,28.21
2023-04-22T10:54:59.843Z,28.11
2023-04-22T10:57:41.737Z,28.34
2023-04-22T11:00:30.975Z,28.50
2023-04-22T11:03:12.618Z,28.30
2023-04-22T11:05:41.174Z,28.42
2023-04-22T11:08:11.759Z,28.84
2023-04-22T11:10:44.105Z,28.36
2023-04-22T11:13:16.139Z,29.33
2023-04-22T11:15:45.823Z,28.86
2023-04-22T11:18:21.496Z,28.73
2023-04-22T11:20:50.755Z,29.62
2023-04-22T11:23:21.164Z,29.23
2023-04-22T11:25:49.062Z,29.64
2023-04-22T11:28:22.874Z,29.43
2023-04-22T11:30:51.062Z,29.14
2023-04-22T11:33:18.987Z,30.12
2023-04-22T11:35:46.713Z,29.48
2023-04-22T11:38:14.498Z,30.00
2023-04-22T11:40:46.504Z,30.80
2023-04-22T11:43:14.962Z,30.19
2023-04-22T11:45:44.131Z,30.76
2023-04-22T11:48:12.847Z,29.39
2023-04-22T11:50:42.183Z,29.61
2023-04-22T11:53:15.458Z,30.02
2023-04-22T11:55:43.738Z,29.67
2023-04-22T11:58:13.452Z,30.69
2023-04-22T12:00:42.546Z,31.60
2023-04-22T12:03:17.926Z,30.60
2023-04-22T12:05:47.369Z,31.76
2023-04-22T12:08:16.696Z,32.17
2023-04-22T12:10:45.931Z,30.94
2023-04-22T12:13:19.857Z,27.99
2023-04-22T12:15:47.648Z,30.63
2023-04-22T12:18:16.759Z,29.19
2023-04-22T12:20:44.740Z,30.10
2023-04-22T12:23:16.225Z,29.52
2023-04-22T12:25:44.483Z,30.22
2023-04-22T12:28:13.433Z,30.02
2023-04-22T12:30:41.110Z,30.14
2023-04-22T12:33:09.458Z,30.31
2023-04-22T12:35:38.532Z,30.69
2023-04-22T12:41:10.841Z,30.21
2023-04-22T12:43:39.478Z,30.69
2023-04-22T12:46:08.002Z,30.06
2023-04-22T12:48:37.267Z,30.16
2023-04-22T12:51:07.506Z,29.05
2023-04-22T12:53:35.560Z,30.21
2023-04-22T12:56:03.259Z,29.41
2023-04-22T12:58:31.211Z,29.33
2023-04-22T13:00:58.922Z,29.64
2023-04-22T13:03:27.095Z,29.42
2023-04-22T13:05:56.017Z,28.74
2023-04-22T13:08:25.450Z,29.22
2023-04-22T13:10:53.931Z,29.42
2023-04-22T13:13:21.884Z,29.24
2023-04-22T13:15:53.315Z,28.42
2023-04-22T13:18:22.998Z,28.48
2023-04-22T13:20:51.292Z,27.95
2023-04-22T13:23:19.795Z,27.50
2023-04-22T13:25:48.933Z,27.95
2023-04-22T13:28:16.868Z,27.71
2023-04-22T13:30:44.693Z,28.14
2023-04-22T13:33:12.372Z,27.88
2023-04-22T13:35:40.649Z,26.92
2023-04-22T13:38:08.404Z,28.31
2023-04-22T13:40:36.231Z,28.26
2023-04-22T13:43:05.434Z,27.84
2023-04-22T13:45:33.500Z,28.20
2023-04-22T13:48:01.735Z,26.91
2023-04-22T13:50:29.445Z,27.53
2023-04-22T13:52:57.182Z,27.70
2023-04-22T13:55:26.668Z,27.80
2023-04-22T13:57:57.379Z,28.97
2023-04-22T14:00:26.446Z,29.71
2023-04-22T14:02:54.256Z,29.01
2023-04-22T14:05:21.989Z,28.02
2023-04-22T14:07:49.641Z,28.26
2023-04-22T14:10:20.325Z,30.75
2023-04-22T14:12:48.848Z,33.05
2023-04-22T14:15:16.709Z,33.59
2023-04-22T14:17:49.351Z,34.29
2023-04-22T14:20:17.941Z,32.21
2023-04-22T14:22:46.388Z,32.99
2023-04-22T14:25:14.392Z,30.91
2023-04-22T14:27:42.637Z,30.23
2023-04-22T14:30:11.188Z,29.71
2023-04-22T14:32:39.022Z,30.97
2023-04-22T14:35:09.109Z,28.24
2023-04-22T14:37:36.810Z,28.84
2023-04-22T14:40:05.705Z,29.41
2023-04-22T14:42:33.476Z,27.81
2023-04-22T14:45:01.540Z,29.11
2023-04-22T14:47:29.922Z,28.95
2023-04-22T14:49:57.653Z,31.69
2023-04-22T14:52:26.895Z,30.56
2023-04-22T14:54:54.563Z,28.48
2023-04-22T14:57:22.230Z,28.21
2023-04-22T14:59:50.144Z,28.71
2023-04-22T15:02:18.079Z,29.75
2023-04-22T15:04:45.803Z,27.68
2023-04-22T15:07:13.608Z,28.14
2023-04-22T15:09:43.096Z,26.21
2023-04-22T15:12:11.463Z,26.77
2023-04-22T15:14:39.969Z,27.74
2023-04-22T15:17:07.764Z,27.29
2023-04-22T15:19:35.631Z,27.13
2023-04-22T15:22:03.567Z,27.45
2023-04-22T15:24:31.559Z,26.38
2023-04-22T15:27:01.280Z,26.51
2023-04-22T15:29:29.469Z,26.54
2023-04-22T15:31:57.846Z,25.25
2023-04-22T15:34:25.986Z,25.26
2023-04-22T15:36:54.162Z,23.77
2023-04-22T15:39:22.204Z,23.78
2023-04-22T15:41:49.951Z,24.26
2023-04-22T15:44:19.283Z,23.87
2023-04-22T15:46:47.383Z,24.21
2023-04-22T15:49:15.805Z,23.42
2023-04-22T15:51:43.556Z,23.29
2023-04-22T15:54:11.454Z,24.50
2023-04-22T15:56:39.144Z,23.86
2023-04-22T15:59:07.025Z,23.78
2023-04-22T16:01:36.138Z,23.33
2023-04-22T16:04:04.388Z,23.60
2023-04-22T16:06:32.298Z,23.39
2023-04-22T16:08:59.973Z,23.33
2023-04-22T16:11:27.650Z,22.85
2023-04-22T16:13:55.300Z,23.49
2023-04-22T16:16:23.836Z,23.54
2023-04-22T16:18:53.314Z,23.69
2023-04-22T16:21:21.216Z,23.78
2023-04-22T16:23:49.675Z,23.44
2023-04-22T16:26:17.430Z,23.26
2023-04-22T16:28:46.736Z,23.14
2023-04-22T16:31:14.576Z,22.93
2023-04-22T16:33:42.260Z,24.06
2023-04-22T16:36:11.472Z,24.30
2023-04-22T16:38:39.168Z,23.60
2023-04-22T16:41:07.355Z,24.12
2023-04-22T16:43:35.068Z,24.33
2023-04-22T16:46:03.760Z,23.75
2023-04-22T16:48:31.547Z,23.80
2023-04-22T16:50:59.273Z,23.62
2023-04-22T16:53:28.409Z,23.82
2023-04-22T16:55:56.664Z,23.58
2023-04-22T16:58:24.416Z,23.68
2023-04-22T17:00:52.665Z,23.49
2023-04-22T17:03:21.334Z,23.81
2023-04-22T17:05:49.134Z,23.45
2023-04-22T17:08:17.059Z,23.75
2023-04-22T17:10:46.388Z,23.30
2023-04-22T17:13:14.479Z,22.70
2023-04-22T17:15:42.307Z,23.37
2023-04-22T17:18:10.626Z,23.43
2023-04-22T17:20:38.506Z,23.94
2023-04-22T17:23:06.183Z,23.95
2023-04-22T17:25:33.901Z,24.02
2023-04-22T17:28:02.992Z,24.19
2023-04-22T17:30:30.775Z,23.63
2023-04-22T17:32:58.807Z,23.40
2023-04-22T17:35:26.510Z,24.35
2023-04-22T17:37:54.465Z,23.87
2023-04-22T17:40:23.059Z,23.87
2023-04-22T17:42:51.224Z,23.84
2023-04-22T17:45:20.357Z,23.20
2023-04-22T17:47:48.814Z,24.62
2023-04-22T17:50:16.856Z,24.47
2023-04-22T17:52:44.604Z,23.77
2023-04-22T17:55:12.372Z,23.92
2023-04-22T17:57:40.810Z,23.61
2023-04-22T18:00:10.194Z,23.56
2023-04-22T18:02:39.425Z,23.45
2023-04-22T18:05:07.887Z,23.14
2023-04-22T18:07:35.600Z,23.21
2023-04-22T18:10:03.381Z,22.96
2023-04-22T18:12:31.276Z,22.57
2023-04-22T18:14:59.296Z,22.77
2023-04-22T18:17:27.059Z,22.16
2023-04-22T18:20:09.687Z,22.12
2023-04-22T18:22:42.686Z,20.74
2023-04-22T18:25:10.519Z,21.56
2023-04-22T18:27:38.231Z,21.90
2023-04-22T18:30:07.238Z,22.01
2023-04-22T18:32:35.954Z,21.86
2023-04-22T18:35:06.027Z,21.31
2023-04-22T18:37:34.879Z,22.07
2023-04-22T18:40:02.906Z,21.82
2023-04-22T18:42:31.040Z,21.68
2023-04-22T18:44:58.849Z,21.53
2023-04-22T18:47:27.071Z,21.53
2023-04-22T18:49:54.734Z,21.70
2023-04-22T18:52:23.802Z,22.49
2023-04-22T18:54:51.548Z,22.59
2023-04-22T18:57:19.586Z,22.95
2023-04-22T18:59:48.463Z,22.39
2023-04-22T19:02:16.996Z,22.85
2023-04-22T19:04:45.111Z,22.18
2023-04-22T19:07:13.654Z,22.24
2023-04-22T19:09:42.664Z,22.79
2023-04-22T19:12:14.827Z,23.21
2023-04-22T19:14:42.912Z,22.65
2023-04-22T19:17:11.001Z,22.93
2023-04-22T19:19:39.093Z,23.43
2023-04-22T19:22:07.071Z,22.29
2023-04-22T19:24:35.378Z,21.35
2023-04-22T19:27:06.915Z,22.51
2023-04-22T19:29:34.684Z,21.95
2023-04-22T19:32:03.406Z,22.66
2023-04-22T19:34:31.580Z,22.17
2023-04-22T19:36:59.200Z,22.93
2023-04-22T19:39:26.923Z,22.67
2023-04-22T19:41:58.202Z,21.72
2023-04-22T19:44:27.304Z,22.33
2023-04-22T19:46:55.258Z,21.78
2023-04-22T19:49:23.792Z,21.85
2023-04-22T19:51:52.494Z,22.20
2023-04-22T19:54:21.940Z,22.40
2023-04-22T19:56:49.797Z,21.48
2023-04-22T19:59:17.902Z,21.64
2023-04-22T20:01:47.498Z,22.01
2023-04-22T20:04:16.043Z,21.25
2023-04-22T20:06:44.806Z,22.39
2023-04-22T20:09:13.315Z,21.21
2023-04-22T20:11:41.860Z,21.25
2023-04-22T20:14:10.408Z,21.55
2023-04-22T20:16:38.972Z,20.61
2023-04-22T20:19:08.278Z,22.20
2023-04-22T20:21:36.944Z,22.02
2023-04-22T20:24:05.863Z,22.37
2023-04-22T20:26:33.886Z,20.54
2023-04-22T20:29:01.716Z,20.80
2023-04-22T20:31:30.493Z,21.16
2023-04-22T20:33:58.688Z,20.09
2023-04-22T20:36:27.818Z,20.54
2023-04-22T20:38:56.202Z,20.84
2023-04-22T20:41:25.515Z,20.05
2023-04-22T20:43:53.320Z,20.26
2023-04-22T20:46:23.351Z,20.08
2023-04-22T20:48:51.664Z,20.56
2023-04-22T20:51:19.549Z,20.13
2023-04-22T20:53:48.568Z,20.15
2023-04-22T20:56:16.390Z,19.00
2023-04-22T20:58:44.083Z,19.78
2023-04-22T21:01:12.112Z,18.91
2023-04-22T21:03:40.416Z,19.37
2023-04-22T21:06:09.086Z,20.27
2023-04-22T21:08:39.224Z,20.16
2023-04-22T21:11:08.843Z,19.14
2023-04-22T21:13:37.076Z,19.82
2023-04-22T21:16:06.016Z,19.43
2023-04-22T21:18:35.656Z,19.01
2023-04-22T21:21:04.713Z,19.07
2023-04-22T21:23:33.122Z,18.65
2023-04-22T21:26:02.638Z,17.86
2023-04-22T21:28:32.410Z,17.80
2023-04-22T21:31:01.016Z,17.90
2023-04-22T21:33:28.698Z,17.71
2023-04-22T21:35:56.467Z,19.22
2023-04-22T21:38:24.131Z,17.89
2023-04-22T21:40:51.956Z,17.90
2023-04-22T21:43:19.654Z,17.50
2023-04-22T21:45:48.676Z,17.51
2023-04-22T21:48:16.353Z,17.34
2023-04-22T21:50:44.094Z,17.99
2023-04-22T21:53:12.294Z,17.81
2023-04-22T21:55:40.014Z,17.06
2023-04-22T21:58:07.975Z,18.24
2023-04-22T22:00:37.712Z,17.38
2023-04-22T22:03:07.253Z,17.68
2023-04-22T22:05:35.265Z,17.64
2023-04-22T22:08:03.186Z,17.97
2023-04-22T22:10:30.888Z,18.58
2023-04-22T22:12:58.536Z,17.98
2023-04-22T22:15:26.176Z,17.61
2023-04-22T22:17:53.964Z,17.30
2023-04-22T22:20:23.878Z,18.43
2023-04-22T22:22:51.581Z,18.79
2023-04-22T22:25:19.225Z,17.90
2023-04-22T22:27:48.748Z,16.94
2023-04-22T22:30:17.007Z,17.53
2023-04-22T22:32:44.746Z,17.50
2023-04-22T22:35:12.473Z,17.38
2023-04-22T22:37:42.182Z,16.45
2023-04-22T22:40:11.170Z,16.91
2023-04-22T22:42:38.811Z,16.92
2023-04-22T22:45:07.612Z,17.27
2023-04-22T22:47:35.375Z,16.71
2023-04-22T22:50:03.222Z,16.26
2023-04-22T22:52:31.989Z,17.68
2023-04-22T22:55:01.073Z,17.22
2023-04-22T22:57:28.725Z,17.00
2023-04-22T22:59:56.430Z,17.32
2023-04-22T23:02:24.159Z,16.59
2023-04-22T23:04:51.912Z,17.38
2023-04-22T23:07:19.592Z,17.87
2023-04-22T23:09:47.220Z,16.71
2023-04-22T23:12:16.285Z,16.90
2023-04-22T23:14:44.243Z,16.49
2023-04-22T23:17:11.941Z,18.27
2023-04-22T23:19:40.425Z,17.60
2023-04-22T23:22:08.351Z,17.45
2023-04-22T23:24:36.828Z,17.52
2023-04-22T23:27:05.493Z,17.02
2023-04-22T23:29:36.678Z,16.29
2023-04-22T23:32:05.448Z,18.02
2023-04-22T23:34:35.154Z,17.39
2023-04-22T23:37:05.419Z,16.92
2023-04-22T23:42:14.556Z,16.51
2023-04-22T23:44:43.669Z,18.42
2023-04-22T23:47:12.280Z,16.78
2023-04-22T23:49:41.521Z,17.38
2023-04-22T23:52:10.456Z,16.70
2023-04-22T23:54:38.767Z,16.14
2023-04-22T23:57:07.308Z,16.87
